createdAt,value
2018-11-11T00:01:33.981Z,41.10
2018-11-11T00:04:03.165Z,35.70
2018-11-11T00:06:32.512Z,44.37
2018-11-11T00:09:02.461Z,36.30
2018-11-11T00:11:31.821Z,43.40
2018-11-11T00:14:02.240Z,39.20
2018-11-11T00:16:31.108Z,44.90
2018-11-11T00:19:00.665Z,39.77
2018-11-11T00:21:30.275Z,39.47
2018-11-11T00:24:00.260Z,29.20
2018-11-11T00:26:29.853Z,45.00
2018-11-11T00:28:59.535Z,38.70
2018-11-11T00:31:30.006Z,40.37
2018-11-11T00:33:59.656Z,41.03
2018-11-11T00:36:29.745Z,37.10
2018-11-11T00:38:58.892Z,38.60
2018-11-11T00:41:28.557Z,36.63
2018-11-11T00:43:57.153Z,46.83
2018-11-11T00:46:26.413Z,35.53
2018-11-11T00:48:55.367Z,37.53
2018-11-11T00:51:24.596Z,39.33
2018-11-11T00:53:58.273Z,46.07
2018-11-11T00:56:26.878Z,39.33
2018-11-11T00:58:55.504Z,36.43
2018-11-11T01:01:24.479Z,39.17
2018-11-11T01:03:53.573Z,43.20
2018-11-11T01:06:22.965Z,43.83
2018-11-11T01:08:54.010Z,43.73
2018-11-11T01:11:24.059Z,41.03
2018-11-11T01:13:53.155Z,42.67
2018-11-11T01:16:22.721Z,40.80
2018-11-11T01:18:51.853Z,40.00
2018-11-11T01:21:21.137Z,40.17
2018-11-11T01:23:51.019Z,39.63
2018-11-11T01:26:23.234Z,37.37
2018-11-11T01:28:52.017Z,35.50
2018-11-11T01:31:21.307Z,37.10
2018-11-11T01:33:51.373Z,36.37
2018-11-11T01:36:20.168Z,40.37
2018-11-11T01:38:50.448Z,35.00
2018-11-11T01:41:19.717Z,36.60
2018-11-11T01:43:48.571Z,35.43
2018-11-11T01:46:17.139Z,35.13
2018-11-11T01:48:46.229Z,35.70
2018-11-11T01:51:15.470Z,34.60
2018-11-11T01:53:44.732Z,37.80
2018-11-11T01:56:16.102Z,35.97
2018-11-11T01:58:45.665Z,41.53
2018-11-11T02:01:15.733Z,35.93
2018-11-11T02:03:45.210Z,37.57
2018-11-11T02:06:13.980Z,35.37
2018-11-11T02:08:44.005Z,36.57
2018-11-11T02:11:12.802Z,35.00
2018-11-11T02:13:41.956Z,35.30
2018-11-11T02:16:11.102Z,39.10
2018-11-11T02:18:40.948Z,32.87
2018-11-11T02:21:09.581Z,37.33
2018-11-11T02:23:38.830Z,34.60
2018-11-11T02:26:07.925Z,38.63
2018-11-11T02:28:37.248Z,37.53
2018-11-11T02:31:06.821Z,32.37
2018-11-11T02:33:35.733Z,39.00
2018-11-11T02:36:04.524Z,40.97
2018-11-11T02:38:33.073Z,37.43
2018-11-11T02:41:01.957Z,38.23
2018-11-11T02:43:31.267Z,37.17
2018-11-11T02:46:00.363Z,38.13
2018-11-11T02:48:29.347Z,39.97
2018-11-11T02:50:58.189Z,35.10
2018-11-11T02:53:27.307Z,40.23
2018-11-11T02:55:56.572Z,38.97
2018-11-11T02:58:25.447Z,41.70
2018-11-11T03:03:51.630Z,36.10
2018-11-11T03:06:20.180Z,36.80
2018-11-11T03:08:49.375Z,39.20
2018-11-11T03:11:18.581Z,38.60
2018-11-11T03:13:47.069Z,41.07
2018-11-11T03:16:15.577Z,40.87
2018-11-11T03:18:44.065Z,41.47
2018-11-11T03:21:13.000Z,39.17
2018-11-11T03:23:42.425Z,42.43
2018-11-11T03:26:11.807Z,38.83
2018-11-11T03:28:40.797Z,46.37
2018-11-11T03:31:09.959Z,41.30
2018-11-11T03:33:39.553Z,43.77
2018-11-11T03:36:08.924Z,40.20
2018-11-11T03:38:38.095Z,37.43
2018-11-11T03:41:08.054Z,39.57
2018-11-11T03:43:38.019Z,34.40
2018-11-11T03:46:07.232Z,36.83
2018-11-11T03:48:36.343Z,37.10
2018-11-11T03:51:05.972Z,42.40
2018-11-11T03:53:35.529Z,39.87
2018-11-11T03:56:04.799Z,36.70
2018-11-11T03:58:33.941Z,33.70
2018-11-11T04:01:03.516Z,40.40
2018-11-11T04:03:32.546Z,37.40
2018-11-11T04:06:01.914Z,38.00
2018-11-11T04:08:30.822Z,33.93
2018-11-11T04:10:59.349Z,40.00
2018-11-11T04:13:28.415Z,42.47
2018-11-11T04:15:57.193Z,38.00
2018-11-11T04:18:25.700Z,37.43
2018-11-11T04:20:54.191Z,40.10
2018-11-11T04:23:22.890Z,36.13
2018-11-11T04:25:51.434Z,45.13
2018-11-11T04:28:20.272Z,35.73
2018-11-11T04:30:49.679Z,41.43
2018-11-11T04:33:18.967Z,37.67
2018-11-11T04:35:48.016Z,40.47
2018-11-11T04:38:17.628Z,41.47
2018-11-11T04:40:46.182Z,45.43
2018-11-11T04:43:15.317Z,43.93
2018-11-11T04:45:44.109Z,46.97
2018-11-11T04:48:12.836Z,42.30
2018-11-11T04:50:42.680Z,38.83
2018-11-11T04:53:11.168Z,43.40
2018-11-11T04:55:39.911Z,51.70
2018-11-11T04:58:08.524Z,49.17
2018-11-11T05:00:37.100Z,46.00
2018-11-11T05:03:06.588Z,42.53
2018-11-11T05:05:35.292Z,39.60
2018-11-11T05:08:04.316Z,36.10
2018-11-11T05:10:33.692Z,45.13
2018-11-11T05:13:02.288Z,43.80
2018-11-11T05:15:30.832Z,42.67
2018-11-11T05:17:59.836Z,33.97
2018-11-11T05:20:29.068Z,38.03
2018-11-11T05:22:58.189Z,41.30
2018-11-11T05:25:26.908Z,40.20
2018-11-11T05:27:57.043Z,44.33
2018-11-11T05:30:26.158Z,40.37
2018-11-11T05:32:55.785Z,40.67
2018-11-11T05:35:24.902Z,43.93
2018-11-11T05:37:54.179Z,41.60
2018-11-11T05:40:23.462Z,38.27
2018-11-11T05:42:53.572Z,43.20
2018-11-11T05:45:23.134Z,37.90
2018-11-11T05:47:52.252Z,39.73
2018-11-11T05:50:22.194Z,40.10
2018-11-11T05:52:51.706Z,36.20
2018-11-11T05:55:20.712Z,41.73
2018-11-11T05:57:49.972Z,40.90
2018-11-11T06:00:19.829Z,40.67
2018-11-11T06:02:48.990Z,35.80
2018-11-11T06:05:18.183Z,39.13
2018-11-11T06:07:47.322Z,32.80
2018-11-11T06:10:16.500Z,37.20
2018-11-11T06:12:46.131Z,41.13
2018-11-11T06:15:15.245Z,40.77
2018-11-11T06:17:44.655Z,34.63
2018-11-11T06:20:15.914Z,36.13
2018-11-11T06:22:45.374Z,34.10
2018-11-11T06:25:14.090Z,35.87
2018-11-11T06:27:43.486Z,30.33
2018-11-11T06:30:12.969Z,37.17
2018-11-11T06:32:42.149Z,37.43
2018-11-11T06:35:11.833Z,33.60
2018-11-11T06:37:43.950Z,47.87
2018-11-11T06:40:15.462Z,36.27
2018-11-11T06:42:47.508Z,33.20
2018-11-11T06:45:17.187Z,35.50
2018-11-11T06:47:50.697Z,39.03
2018-11-11T06:50:21.176Z,38.60
2018-11-11T06:52:51.044Z,38.50
2018-11-11T06:58:22.906Z,37.67
2018-11-11T07:00:52.674Z,45.63
2018-11-11T07:03:33.054Z,35.43
2018-11-11T07:06:02.602Z,44.33
2018-11-11T07:08:35.749Z,45.43
2018-11-11T07:11:04.908Z,36.20
2018-11-11T07:13:35.852Z,47.60
2018-11-11T07:16:08.294Z,43.33
2018-11-11T07:18:38.494Z,41.27
2018-11-11T07:21:08.518Z,52.77
2018-11-11T07:23:38.715Z,41.37
2018-11-11T07:26:09.066Z,36.33
2018-11-11T07:28:38.759Z,47.47
2018-11-11T07:31:08.570Z,46.50
2018-11-11T07:33:38.596Z,48.23
2018-11-11T07:36:09.735Z,50.67
2018-11-11T07:38:44.226Z,48.90
2018-11-11T07:41:14.248Z,44.83
2018-11-11T07:43:44.816Z,46.57
2018-11-11T07:46:14.168Z,48.87
2018-11-11T07:48:48.224Z,45.43
2018-11-11T07:51:18.187Z,41.17
2018-11-11T07:53:47.622Z,45.13
2018-11-11T07:56:17.776Z,43.10
2018-11-11T07:58:56.364Z,42.30
2018-11-11T08:01:31.133Z,36.90
2018-11-11T08:04:04.516Z,40.00
2018-11-11T08:06:36.292Z,47.30
2018-11-11T08:14:39.550Z,43.83
2018-11-11T08:17:09.006Z,40.30
2018-11-11T08:19:40.719Z,41.77
2018-11-11T08:22:14.960Z,31.87
2018-11-11T08:24:44.942Z,36.10
2018-11-11T08:27:15.622Z,39.23
2018-11-11T08:29:45.123Z,37.30
2018-11-11T08:32:15.137Z,34.83
2018-11-11T08:34:45.342Z,39.77
2018-11-11T08:37:18.187Z,37.87
2018-11-11T08:39:47.320Z,36.77
2018-11-11T08:42:17.915Z,33.67
2018-11-11T08:44:47.065Z,36.53
2018-11-11T08:47:16.657Z,35.23
2018-11-11T08:49:46.450Z,38.27
2018-11-11T08:52:17.706Z,35.20
2018-11-11T08:54:47.892Z,34.37
2018-11-11T08:57:16.950Z,35.77
2018-11-11T08:59:46.086Z,32.10
2018-11-11T09:02:15.162Z,34.00
2018-11-11T09:04:44.881Z,33.13
2018-11-11T09:07:14.031Z,33.90
2018-11-11T09:09:43.353Z,34.70
2018-11-11T09:12:12.471Z,32.57
2018-11-11T09:14:41.742Z,29.20
2018-11-11T09:17:11.134Z,32.90
2018-11-11T09:19:40.538Z,31.00
2018-11-11T09:22:09.165Z,30.07
2018-11-11T09:24:37.677Z,29.80
2018-11-11T09:27:06.662Z,31.20
2018-11-11T09:29:37.919Z,29.00
2018-11-11T09:32:07.810Z,35.37
2018-11-11T09:34:48.115Z,27.70
2018-11-11T09:37:18.994Z,25.47
2018-11-11T09:39:49.635Z,34.40
2018-11-11T09:42:31.962Z,32.70
2018-11-11T09:45:06.782Z,33.23
2018-11-11T09:47:36.333Z,41.60
2018-11-11T09:50:08.566Z,34.27
2018-11-11T09:52:38.056Z,39.33
2018-11-11T09:55:11.349Z,34.70
2018-11-11T10:00:32.555Z,30.13
2018-11-11T10:03:08.214Z,26.60
2018-11-11T10:05:43.345Z,33.23
2018-11-11T10:08:17.866Z,29.57
2018-11-11T10:10:53.726Z,26.20
2018-11-11T10:13:31.709Z,26.53
2018-11-11T10:16:10.347Z,28.83
2018-11-11T10:18:47.469Z,26.37
2018-11-11T10:21:46.904Z,23.53
2018-11-11T10:25:25.852Z,29.73
2018-11-11T10:27:58.641Z,27.17
2018-11-11T10:30:47.735Z,30.07
2018-11-11T10:33:33.184Z,25.53
2018-11-11T10:39:09.078Z,26.53
2018-11-11T10:41:49.725Z,26.83
2018-11-11T10:44:26.232Z,28.83
2018-11-11T10:47:08.782Z,28.76
2018-11-11T10:49:47.989Z,24.40
2018-11-11T10:52:17.994Z,23.87
2018-11-11T10:54:48.645Z,29.30
2018-11-11T10:57:17.950Z,26.97
2018-11-11T10:59:47.859Z,23.20
2018-11-11T11:02:19.444Z,26.87
2018-11-11T11:04:55.035Z,29.47
2018-11-11T11:07:24.677Z,30.47
2018-11-11T11:09:54.781Z,23.77
2018-11-11T11:12:27.617Z,26.20
2018-11-11T11:14:59.111Z,25.73
2018-11-11T11:17:28.864Z,28.33
2018-11-11T11:19:58.479Z,26.40
2018-11-11T11:22:29.051Z,24.50
2018-11-11T11:24:58.067Z,26.40
2018-11-11T11:27:29.381Z,26.67
2018-11-11T11:30:00.321Z,24.47
2018-11-11T11:32:33.510Z,26.73
2018-11-11T11:35:05.457Z,24.07
2018-11-11T11:37:35.710Z,23.97
2018-11-11T11:40:13.281Z,27.23
2018-11-11T11:42:42.447Z,26.80
2018-11-11T11:45:23.205Z,25.27
2018-11-11T11:53:45.659Z,23.83
2018-11-11T11:56:27.066Z,22.57
2018-11-11T12:04:30.825Z,21.33
2018-11-11T12:07:02.636Z,17.93
2018-11-11T12:09:32.064Z,18.60
2018-11-11T12:12:02.445Z,21.53
2018-11-11T12:14:34.583Z,23.00
2018-11-11T12:17:09.624Z,21.43
2018-11-11T12:19:39.610Z,18.90
2018-11-11T12:22:08.925Z,19.83
2018-11-11T12:27:47.887Z,17.70
2018-11-11T12:30:16.497Z,17.63
2018-11-11T12:32:51.302Z,16.17
2018-11-11T12:35:22.941Z,14.87
2018-11-11T12:37:57.491Z,18.43
2018-11-11T12:40:29.115Z,17.10
2018-11-11T12:43:07.972Z,16.33
2018-11-11T12:45:40.545Z,15.20
2018-11-11T12:48:20.840Z,15.87
2018-11-11T12:50:50.933Z,15.63
2018-11-11T12:53:20.559Z,16.90
2018-11-11T12:55:49.229Z,15.90
2018-11-11T12:58:30.349Z,17.80
2018-11-11T13:00:59.105Z,18.50
2018-11-11T13:03:28.140Z,18.40
2018-11-11T13:05:58.149Z,17.77
2018-11-11T13:08:26.757Z,19.87
2018-11-11T13:10:56.145Z,17.37
2018-11-11T13:13:25.667Z,17.00
2018-11-11T13:15:54.997Z,18.30
2018-11-11T13:18:37.053Z,19.50
2018-11-11T13:21:06.165Z,19.87
2018-11-11T13:23:35.922Z,20.73
2018-11-11T13:26:08.961Z,18.57
2018-11-11T13:28:40.675Z,20.63
2018-11-11T13:31:15.153Z,21.33
2018-11-11T13:33:56.999Z,21.07
2018-11-11T13:36:31.051Z,20.70
2018-11-11T13:39:05.477Z,20.93
2018-11-11T13:44:16.654Z,18.80
2018-11-11T13:46:57.691Z,22.70
2018-11-11T13:49:30.579Z,19.83
2018-11-11T13:52:06.946Z,21.40
2018-11-11T13:54:36.503Z,18.40
2018-11-11T13:57:16.342Z,18.53
2018-11-11T13:59:56.919Z,18.43
2018-11-11T14:02:39.530Z,21.33
2018-11-11T14:05:15.395Z,20.53
2018-11-11T14:07:55.411Z,18.67
2018-11-11T14:10:29.370Z,20.00
2018-11-11T14:13:07.645Z,16.70
2018-11-11T14:15:45.833Z,18.90
2018-11-11T14:18:16.965Z,18.43
2018-11-11T14:20:51.761Z,18.67
2018-11-11T14:23:23.973Z,20.67
2018-11-11T14:26:00.134Z,18.90
2018-11-11T14:28:41.356Z,20.90
2018-11-11T14:31:10.823Z,19.90
2018-11-11T14:33:40.600Z,19.17
2018-11-11T14:36:09.217Z,19.90
2018-11-11T14:38:37.890Z,19.50
2018-11-11T14:41:06.642Z,18.43
2018-11-11T14:43:35.197Z,20.80
2018-11-11T14:46:08.045Z,18.00
2018-11-11T14:48:44.278Z,19.60
2018-11-11T14:51:20.715Z,18.30
2018-11-11T14:54:07.722Z,21.73
2018-11-11T14:59:42.239Z,20.70
2018-11-11T15:02:20.778Z,23.77
2018-11-11T15:04:57.165Z,24.57
2018-11-11T15:07:44.465Z,20.90
2018-11-11T15:22:24.260Z,23.50
2018-11-11T15:25:09.933Z,24.03
2018-11-11T15:27:57.802Z,20.67
2018-11-11T15:30:32.435Z,25.23
2018-11-11T15:33:11.193Z,29.10
2018-11-11T15:35:52.911Z,23.37
2018-11-11T15:38:39.884Z,28.47
2018-11-11T15:44:05.237Z,25.87
2018-11-11T15:46:50.722Z,22.43
2018-11-11T16:13:53.620Z,27.10
2018-11-11T16:16:23.741Z,25.93
2018-11-11T16:25:45.251Z,27.87
2018-11-11T16:39:07.843Z,27.30
2018-11-11T16:41:36.617Z,29.67
2018-11-11T16:44:05.181Z,34.60
2018-11-11T16:46:36.086Z,33.60
2018-11-11T16:49:05.832Z,29.20
2018-11-11T16:51:34.671Z,30.93
2018-11-11T16:54:03.242Z,25.60
2018-11-11T16:56:31.786Z,36.73
2018-11-11T16:59:00.356Z,39.60
2018-11-11T17:01:28.898Z,34.13
2018-11-11T17:04:02.301Z,35.83
2018-11-11T17:06:30.772Z,35.90
2018-11-11T17:08:59.364Z,38.17
2018-11-11T17:11:40.170Z,39.97
2018-11-11T17:14:08.795Z,36.27
2018-11-11T17:16:43.140Z,37.37
2018-11-11T17:28:14.875Z,40.23
2018-11-11T17:30:56.975Z,38.57
2018-11-11T17:33:38.994Z,32.40
2018-11-11T17:36:10.126Z,37.20
2018-11-11T17:38:42.906Z,38.23
2018-11-11T17:41:22.830Z,36.67
2018-11-11T17:43:56.343Z,34.90
2018-11-11T17:46:32.646Z,40.90
2018-11-11T17:49:18.677Z,32.77
2018-11-11T17:52:06.218Z,39.10
2018-11-11T17:54:42.514Z,37.90
2018-11-11T17:57:15.316Z,37.20
2018-11-11T18:05:23.589Z,34.80
2018-11-11T18:07:55.392Z,35.00
2018-11-11T18:10:29.023Z,39.20
2018-11-11T18:13:02.638Z,37.63
2018-11-11T18:15:43.341Z,35.17
2018-11-11T18:18:28.929Z,32.97
2018-11-11T18:21:12.901Z,34.33
2018-11-11T18:23:54.796Z,33.63
2018-11-11T18:29:28.807Z,34.70
2018-11-11T18:32:10.577Z,39.17
2018-11-11T18:34:39.585Z,32.90
2018-11-11T18:37:17.808Z,37.83
2018-11-11T18:39:47.677Z,34.73
2018-11-11T18:42:17.109Z,33.70
2018-11-11T18:44:46.434Z,31.27
2018-11-11T19:17:46.134Z,40.87
2018-11-11T19:20:18.317Z,38.37
2018-11-11T19:22:51.365Z,35.90
2018-11-11T19:25:47.427Z,32.40
2018-11-11T19:31:27.865Z,35.00
2018-11-11T19:33:56.627Z,35.73
2018-11-11T19:36:27.419Z,37.33
2018-11-11T19:39:10.126Z,37.97
2018-11-11T19:41:51.953Z,34.00
2018-11-11T19:44:27.223Z,36.30
2018-11-11T19:47:07.717Z,36.57
2018-11-11T19:58:12.893Z,35.97
2018-11-11T20:00:55.055Z,35.40
2018-11-11T20:03:32.113Z,38.67
2018-11-11T20:06:16.906Z,39.97
2018-11-11T20:08:59.577Z,34.50
2018-11-11T20:17:11.030Z,41.13
2018-11-11T20:19:49.045Z,34.80
2018-11-11T20:22:41.817Z,39.40
2018-11-11T20:25:29.493Z,39.27
2018-11-11T20:28:17.067Z,35.17
2018-11-11T20:31:05.902Z,33.97
2018-11-11T20:33:48.125Z,34.13
2018-11-11T20:36:30.432Z,36.63
2018-11-11T20:39:07.579Z,31.93
2018-11-11T20:41:45.231Z,33.43
2018-11-11T20:44:18.216Z,30.90
2018-11-11T20:46:46.773Z,27.37
2018-11-11T20:49:18.995Z,29.50
2018-11-11T20:54:47.472Z,31.00
2018-11-11T20:57:23.698Z,33.63
2018-11-11T21:08:56.255Z,28.50
2018-11-11T21:11:49.836Z,29.87
2018-11-11T21:34:30.060Z,28.27
2018-11-11T21:37:17.206Z,29.03
2018-11-11T21:39:54.546Z,29.27
2018-11-11T21:42:43.574Z,32.60
2018-11-11T21:45:14.551Z,26.67
2018-11-11T21:47:55.740Z,28.80
2018-11-11T21:50:34.497Z,21.83
2018-11-11T21:55:28.644Z,26.30
2018-11-11T21:58:06.648Z,25.37
2018-11-11T22:00:45.598Z,28.17
2018-11-11T22:03:24.930Z,30.67
2018-11-11T22:06:03.140Z,27.80
2018-11-11T22:08:43.728Z,28.40
2018-11-11T22:11:17.962Z,32.03
2018-11-11T22:13:48.918Z,25.43
2018-11-11T22:16:19.166Z,21.77
2018-11-11T22:18:50.342Z,26.87
2018-11-11T22:21:22.358Z,28.87
2018-11-11T22:24:12.956Z,26.97
2018-11-11T22:26:45.660Z,27.87
2018-11-11T22:29:16.401Z,27.43
2018-11-11T22:31:45.480Z,27.33
2018-11-11T22:34:14.486Z,33.23
2018-11-11T22:36:51.295Z,28.00
2018-11-11T22:39:20.108Z,25.60
2018-11-11T22:42:09.637Z,28.70
2018-11-11T22:45:52.400Z,26.83
2018-11-11T22:48:36.970Z,30.17
2018-11-11T22:51:43.392Z,27.57
2018-11-11T22:54:30.146Z,33.30
2018-11-11T22:57:18.904Z,26.57
2018-11-11T23:00:20.836Z,28.00
2018-11-11T23:03:06.975Z,26.83
2018-11-11T23:05:48.182Z,30.53
2018-11-11T23:11:05.772Z,31.27
2018-11-11T23:13:44.487Z,30.43
2018-11-11T23:16:22.619Z,31.53
2018-11-11T23:21:41.786Z,32.67
2018-11-11T23:24:14.026Z,28.43
2018-11-11T23:26:52.553Z,31.67
2018-11-11T23:29:30.987Z,32.03
2018-11-11T23:32:04.752Z,32.17
2018-11-11T23:34:39.793Z,32.70
2018-11-11T23:37:08.915Z,30.47
2018-11-11T23:39:37.846Z,34.30
2018-11-11T23:42:06.466Z,32.20
2018-11-11T23:44:36.533Z,33.07
2018-11-11T23:47:07.202Z,36.07
2018-11-11T23:49:36.649Z,34.50
2018-11-11T23:52:08.105Z,36.03
2018-11-11T23:54:38.717Z,29.50
2018-11-11T23:57:09.256Z,34.27
2018-11-11T23:59:42.960Z,35.60
